createdAt,value
2019-04-11T00:01:10.079Z,72.10
2019-04-11T00:03:39.766Z,72.50
2019-04-11T00:06:09.565Z,72.70
2019-04-11T00:08:39.142Z,73.00
2019-04-11T00:11:09.470Z,73.30
2019-04-11T00:13:41.109Z,73.90
2019-04-11T00:16:11.526Z,74.00
2019-04-11T00:18:41.145Z,74.30
2019-04-11T00:21:12.826Z,74.70
2019-04-11T00:23:46.009Z,75.00
2019-04-11T00:26:16.002Z,75.40
2019-04-11T00:28:50.004Z,75.90
2019-04-11T00:31:20.896Z,76.00
2019-04-11T00:33:50.840Z,76.40
2019-04-11T00:36:20.218Z,76.80
2019-04-11T00:38:52.321Z,77.00
2019-04-11T00:41:28.131Z,77.30
2019-04-11T00:44:08.312Z,77.60
2019-04-11T00:46:46.645Z,77.90
2019-04-11T00:49:19.015Z,78.30
2019-04-11T00:51:50.569Z,78.50
2019-04-11T00:54:20.036Z,78.80
2019-04-11T00:56:50.975Z,78.80
2019-04-11T00:59:22.454Z,79.10
2019-04-11T01:01:51.960Z,79.30
2019-04-11T01:04:21.324Z,79.10
2019-04-11T01:06:50.655Z,79.40
2019-04-11T01:09:20.139Z,79.50
2019-04-11T01:11:50.356Z,79.90
2019-04-11T01:14:19.840Z,80.10
2019-04-11T01:16:56.928Z,80.20
2019-04-11T01:19:26.866Z,80.40
2019-04-11T01:21:58.062Z,80.40
2019-04-11T01:24:29.321Z,80.70
2019-04-11T01:27:01.476Z,80.40
2019-04-11T01:29:31.492Z,80.80
2019-04-11T01:32:04.275Z,81.00
2019-04-11T01:34:34.991Z,81.20
2019-04-11T01:37:04.982Z,81.50
2019-04-11T01:39:38.830Z,81.80
2019-04-11T01:42:09.122Z,81.80
2019-04-11T01:44:38.895Z,81.90
2019-04-11T01:47:10.818Z,82.20
2019-04-11T01:49:40.685Z,82.20
2019-04-11T01:52:10.094Z,82.40
2019-04-11T01:54:39.619Z,82.50
2019-04-11T01:57:09.704Z,82.60
2019-04-11T01:59:39.618Z,82.40
2019-04-11T02:02:22.838Z,82.90
2019-04-11T02:04:54.379Z,82.90
2019-04-11T02:07:24.869Z,83.00
2019-04-11T02:09:54.764Z,83.70
2019-04-11T02:12:24.428Z,83.00
2019-04-11T02:14:53.772Z,83.00
2019-04-11T02:17:24.324Z,83.00
2019-04-11T02:19:53.848Z,82.90
2019-04-11T02:22:36.643Z,83.20
2019-04-11T02:25:12.247Z,82.80
2019-04-11T02:27:42.302Z,83.00
2019-04-11T02:30:14.214Z,83.00
2019-04-11T02:32:44.915Z,83.20
2019-04-11T02:35:15.421Z,83.10
2019-04-11T02:37:47.662Z,82.60
2019-04-11T02:40:17.634Z,82.60
2019-04-11T02:42:47.673Z,82.10
2019-04-11T02:45:31.289Z,82.20
2019-04-11T02:47:50.989Z,82.20
2019-04-11T02:50:23.397Z,82.10
2019-04-11T02:52:51.984Z,82.30
2019-04-11T02:55:21.763Z,82.30
2019-04-11T02:57:51.909Z,82.20
2019-04-11T03:00:21.533Z,82.10
2019-04-11T03:02:53.104Z,82.50
2019-04-11T03:05:22.124Z,82.50
2019-04-11T03:07:51.712Z,82.50
2019-04-11T03:10:21.420Z,82.60
2019-04-11T03:12:52.524Z,82.80
2019-04-11T03:15:37.496Z,83.10
2019-04-11T03:18:02.908Z,82.90
2019-04-11T03:20:38.270Z,83.00
2019-04-11T03:23:05.580Z,83.50
2019-04-11T03:25:33.903Z,83.80
2019-04-11T03:28:04.950Z,84.20
2019-04-11T03:30:57.499Z,84.50
2019-04-11T03:38:31.402Z,85.40
2019-04-11T03:40:57.667Z,85.90
2019-04-11T03:43:26.155Z,86.10
2019-04-11T03:46:03.793Z,86.40
2019-04-11T03:48:29.048Z,86.50
2019-04-11T03:50:46.773Z,86.80
2019-04-11T03:53:19.266Z,87.10
2019-04-11T03:55:49.575Z,87.30
2019-04-11T03:58:19.754Z,87.30
2019-04-11T04:00:53.443Z,87.60
2019-04-11T04:03:22.512Z,87.80
2019-04-11T04:05:54.913Z,88.00
2019-04-11T04:08:25.186Z,88.10
2019-04-11T04:11:08.303Z,88.30
2019-04-11T04:13:39.753Z,88.60
2019-04-11T04:16:18.775Z,89.00
2019-04-11T04:18:54.236Z,89.30
2019-04-11T04:21:30.986Z,89.40
2019-04-11T04:24:03.714Z,89.80
2019-04-11T04:26:33.694Z,90.00
2019-04-11T04:29:04.611Z,90.10
2019-04-11T04:31:35.043Z,90.20
2019-04-11T04:34:04.752Z,90.40
2019-04-11T04:36:34.831Z,90.80
2019-04-11T04:39:05.735Z,90.50
2019-04-11T04:41:41.350Z,90.60
2019-04-11T04:44:08.603Z,90.60
2019-04-11T04:46:52.509Z,90.70
2019-04-11T04:49:11.054Z,90.70
2019-04-11T04:51:41.542Z,90.80
2019-04-11T04:54:12.139Z,90.80
2019-04-11T04:56:43.133Z,90.90
2019-04-11T04:59:14.610Z,90.90
2019-04-11T05:01:44.310Z,91.00
2019-04-11T05:04:15.779Z,91.00
2019-04-11T05:06:48.234Z,91.00
2019-04-11T05:09:17.778Z,91.10
2019-04-11T05:11:48.606Z,91.20
2019-04-11T05:14:18.897Z,91.20
2019-04-11T05:16:48.356Z,91.20
2019-04-11T05:19:19.032Z,91.20
2019-04-11T05:21:49.821Z,91.30
2019-04-11T05:24:19.356Z,91.20
2019-04-11T05:26:48.716Z,91.20
2019-04-11T05:29:18.129Z,91.20
2019-04-11T05:31:47.459Z,91.20
2019-04-11T05:34:16.821Z,91.20
2019-04-11T05:36:53.300Z,91.50
2019-04-11T05:39:23.410Z,91.20
2019-04-11T05:41:54.531Z,91.20
2019-04-11T05:44:24.983Z,91.10
2019-04-11T05:46:58.944Z,91.10
2019-04-11T05:49:29.067Z,91.10
2019-04-11T05:52:06.090Z,91.00
2019-04-11T05:54:47.614Z,90.80
2019-04-11T05:57:15.648Z,90.90
2019-04-11T05:59:50.929Z,90.60
2019-04-11T06:02:22.677Z,90.60
2019-04-11T06:05:00.492Z,90.50
2019-04-11T06:10:43.670Z,90.20
2019-04-11T06:13:22.797Z,89.80
2019-04-11T06:16:00.638Z,89.90
2019-04-11T06:18:34.495Z,89.40
2019-04-11T06:21:15.728Z,88.60
2019-04-11T06:23:47.751Z,88.60
2019-04-11T06:26:37.175Z,88.50
2019-04-11T06:29:16.401Z,87.90
2019-04-11T06:31:40.863Z,87.80
2019-04-11T06:34:11.263Z,87.30
2019-04-11T06:36:43.787Z,86.40
2019-04-11T06:39:15.548Z,85.90
2019-04-11T06:42:04.110Z,85.30
2019-04-11T06:44:46.092Z,84.60
2019-04-11T06:47:25.024Z,84.50
2019-04-11T06:49:56.142Z,84.50
2019-04-11T06:52:28.639Z,84.10
2019-04-11T06:54:59.879Z,83.20
2019-04-11T06:57:32.021Z,83.00
2019-04-11T07:00:03.258Z,82.90
2019-04-11T07:02:35.487Z,82.30
2019-04-11T07:05:09.085Z,82.00
2019-04-11T07:07:40.935Z,81.50
2019-04-11T07:10:11.645Z,80.60
2019-04-11T07:12:42.879Z,79.90
2019-04-11T07:15:16.953Z,80.20
2019-04-11T07:18:06.254Z,77.60
2019-04-11T07:20:37.788Z,78.50
2019-04-11T07:23:26.454Z,77.60
2019-04-11T07:25:58.109Z,77.10
2019-04-11T07:28:41.660Z,76.30
2019-04-11T07:31:21.341Z,76.50
2019-04-11T07:37:21.242Z,75.00
2019-04-11T07:40:09.440Z,75.60
2019-04-11T07:42:46.880Z,74.70
2019-04-11T07:45:37.703Z,72.80
2019-04-11T07:48:15.031Z,71.00
2019-04-11T07:50:44.610Z,71.40
2019-04-11T07:53:15.580Z,70.10
2019-04-11T07:55:46.512Z,70.10
2019-04-11T07:58:17.722Z,69.70
2019-04-11T08:01:05.253Z,69.20
2019-04-11T08:03:53.609Z,69.00
2019-04-11T08:06:33.478Z,68.10
2019-04-11T08:09:22.115Z,67.40
2019-04-11T08:11:53.263Z,65.40
2019-04-11T08:14:42.582Z,65.20
2019-04-11T08:17:27.964Z,64.40
2019-04-11T08:19:53.233Z,62.90
2019-04-11T08:22:25.202Z,61.10
2019-04-11T08:25:09.113Z,61.60
2019-04-11T08:27:52.131Z,61.30
2019-04-11T08:30:12.586Z,59.30
2019-04-11T08:33:00.345Z,58.40
2019-04-11T08:35:33.182Z,57.50
2019-04-11T08:38:10.177Z,57.10
2019-04-11T08:40:45.213Z,55.90
2019-04-11T08:43:19.286Z,55.20
2019-04-11T08:46:08.868Z,53.80
2019-04-11T08:48:49.054Z,52.60
2019-04-11T08:51:20.071Z,49.70
2019-04-11T08:53:55.014Z,45.40
2019-04-11T08:56:25.080Z,44.30
2019-04-11T08:59:13.454Z,43.90
2019-04-11T09:01:44.282Z,45.10
2019-04-11T09:04:26.006Z,44.70
2019-04-11T09:06:56.983Z,44.70
2019-04-11T09:09:36.275Z,39.30
2019-04-11T09:12:12.828Z,39.00
2019-04-11T09:14:45.044Z,38.80
2019-04-11T09:17:16.540Z,40.30
2019-04-11T09:19:51.396Z,39.50
2019-04-11T09:22:41.485Z,40.20
2019-04-11T09:25:30.505Z,40.70
2019-04-11T09:28:05.044Z,40.70
2019-04-11T09:30:45.262Z,39.90
2019-04-11T09:33:17.258Z,39.90
2019-04-11T09:36:05.853Z,40.40
2019-04-11T09:38:49.175Z,40.00
2019-04-11T09:41:36.512Z,41.10
2019-04-11T09:44:10.615Z,39.40
2019-04-11T09:46:54.866Z,39.90
2019-04-11T09:49:27.149Z,40.30
2019-04-11T09:51:58.368Z,39.00
2019-04-11T09:54:36.535Z,37.80
2019-04-11T09:57:07.937Z,38.30
2019-04-11T09:59:45.512Z,39.10
2019-04-11T10:02:16.871Z,40.00
2019-04-11T10:04:48.116Z,40.60
2019-04-11T10:07:19.624Z,41.40
2019-04-11T10:10:02.775Z,41.80
2019-04-11T10:12:40.522Z,41.60
2019-04-11T10:15:11.489Z,40.90
2019-04-11T10:17:59.068Z,40.70
2019-04-11T10:20:28.828Z,39.70
2019-04-11T10:23:10.242Z,39.40
2019-04-11T10:25:41.119Z,39.80
2019-04-11T10:28:30.379Z,41.10
2019-04-11T10:31:08.599Z,40.00
2019-04-11T10:33:39.858Z,39.60
2019-04-11T10:36:25.657Z,39.90
2019-04-11T10:39:13.213Z,39.60
2019-04-11T10:41:56.272Z,40.30
2019-04-11T10:44:27.324Z,40.50
2019-04-11T10:46:58.362Z,41.00
2019-04-11T10:49:30.362Z,40.90
2019-04-11T10:52:04.505Z,40.70
2019-04-11T10:54:35.239Z,40.10
2019-04-11T10:57:18.495Z,39.70
2019-04-11T10:59:49.615Z,39.50
2019-04-11T11:02:37.683Z,39.20
2019-04-11T11:05:10.598Z,38.50
2019-04-11T11:07:42.490Z,37.40
2019-04-11T11:10:13.692Z,37.10
2019-04-11T11:12:47.637Z,37.70
2019-04-11T11:15:19.806Z,37.00
2019-04-11T11:18:35.206Z,36.30
2019-04-11T11:20:53.936Z,36.60
2019-04-11T11:23:35.797Z,38.00
2019-04-11T11:26:19.766Z,39.00
2019-04-11T11:29:11.593Z,40.40
2019-04-11T11:31:40.748Z,41.60
2019-04-11T11:34:17.423Z,43.10
2019-04-11T11:36:54.912Z,43.70
2019-04-11T11:39:33.373Z,43.80
2019-04-11T11:42:22.033Z,43.50
2019-04-11T11:44:53.226Z,44.50
2019-04-11T11:47:41.652Z,44.80
2019-04-11T11:50:21.728Z,45.20
2019-04-11T11:53:08.147Z,46.00
2019-04-11T11:58:27.902Z,46.50
2019-04-11T12:01:03.637Z,47.00
2019-04-11T12:03:46.748Z,47.20
2019-04-11T12:06:19.777Z,47.80
2019-04-11T12:09:14.055Z,48.20
2019-04-11T12:11:57.183Z,48.20
2019-04-11T12:14:46.867Z,48.00
2019-04-11T12:17:44.835Z,47.10
2019-04-11T12:20:44.504Z,45.80
2019-04-11T12:23:29.551Z,44.80
2019-04-11T12:26:14.161Z,45.20
2019-04-11T12:28:55.734Z,43.90
2019-04-11T12:31:39.669Z,43.00
2019-04-11T12:34:32.364Z,42.20
2019-04-11T12:37:17.363Z,41.90
2019-04-11T12:39:57.908Z,42.20
2019-04-11T12:42:40.771Z,40.90
2019-04-11T12:45:35.960Z,41.50
2019-04-11T12:48:18.235Z,41.10
2019-04-11T12:51:07.043Z,41.10
2019-04-11T12:53:49.367Z,41.20
2019-04-11T12:56:40.555Z,39.70
2019-04-11T12:59:22.463Z,39.80
2019-04-11T13:02:20.773Z,39.40
2019-04-11T13:05:02.785Z,40.30
2019-04-11T13:07:51.472Z,40.50
2019-04-11T13:10:35.253Z,40.50
2019-04-11T13:13:34.193Z,40.90
2019-04-11T13:16:18.499Z,40.60
2019-04-11T13:19:07.387Z,40.60
2019-04-11T13:21:50.330Z,41.10
2019-04-11T13:24:35.982Z,40.80
2019-04-11T13:27:23.356Z,40.50
2019-04-11T13:30:05.767Z,40.20
2019-04-11T13:32:49.537Z,40.10
2019-04-11T13:35:34.426Z,40.30
2019-04-11T13:38:21.170Z,41.00
2019-04-11T13:41:13.380Z,41.40
2019-04-11T13:43:55.725Z,41.50
2019-04-11T13:46:44.386Z,42.90
2019-04-11T13:49:32.234Z,44.10
2019-04-11T13:52:17.828Z,44.70
2019-04-11T13:55:02.491Z,45.20
2019-04-11T13:57:52.434Z,45.20
2019-04-11T14:00:37.262Z,45.20
2019-04-11T14:03:37.474Z,45.50
2019-04-11T14:06:26.928Z,45.90
2019-04-11T14:09:12.781Z,45.40
2019-04-11T14:11:59.419Z,44.70
2019-04-11T14:14:38.968Z,44.70
2019-04-11T14:17:22.824Z,44.50
2019-04-11T14:20:14.076Z,44.00
2019-04-11T14:23:13.649Z,43.70
2019-04-11T14:25:56.434Z,44.00
2019-04-11T14:28:36.398Z,44.50
2019-04-11T14:31:38.297Z,44.80
2019-04-11T14:34:31.114Z,45.50
2019-04-11T14:37:22.872Z,45.80
2019-04-11T14:40:22.285Z,46.70
2019-04-11T14:43:17.871Z,47.10
2019-04-11T14:46:06.884Z,48.10
2019-04-11T14:48:48.996Z,48.80
2019-04-11T14:51:41.424Z,49.70
2019-04-11T14:54:25.162Z,49.90
2019-04-11T14:57:23.101Z,50.60
2019-04-11T15:00:12.952Z,50.50
2019-04-11T15:02:56.226Z,50.10
2019-04-11T15:05:44.573Z,50.80
2019-04-11T15:08:28.684Z,51.00
2019-04-11T15:11:21.444Z,51.10
2019-04-11T15:14:15.730Z,51.70
2019-04-11T15:16:57.107Z,52.20
2019-04-11T15:19:41.019Z,52.40
2019-04-11T15:22:38.047Z,52.40
2019-04-11T15:25:31.897Z,52.60
2019-04-11T15:28:22.296Z,52.80
2019-04-11T15:31:18.485Z,53.10
2019-04-11T15:34:11.841Z,53.60
2019-04-11T15:37:08.266Z,53.40
2019-04-11T15:40:02.019Z,54.40
2019-04-11T15:42:44.570Z,54.70
2019-04-11T15:45:46.694Z,53.20
2019-04-11T15:48:42.816Z,53.70
2019-04-11T15:51:43.702Z,54.50
2019-04-11T15:54:22.049Z,54.70
2019-04-11T15:57:12.588Z,55.40
2019-04-11T16:00:13.573Z,56.40
2019-04-11T16:02:56.589Z,58.20
2019-04-11T16:05:45.513Z,59.00
2019-04-11T16:08:38.835Z,58.80
2019-04-11T16:11:21.158Z,57.20
2019-04-11T16:14:13.132Z,56.40
2019-04-11T16:17:05.304Z,56.00
2019-04-11T16:19:48.618Z,55.50
2019-04-11T16:22:43.012Z,56.40
2019-04-11T16:25:28.889Z,56.90
2019-04-11T16:28:23.371Z,56.70
2019-04-11T16:31:09.405Z,56.90
2019-04-11T16:33:53.517Z,57.70
2019-04-11T16:36:36.567Z,58.30
2019-04-11T16:39:24.979Z,57.70
2019-04-11T16:42:08.684Z,57.20
2019-04-11T16:45:00.854Z,58.60
2019-04-11T16:47:49.196Z,58.90
2019-04-11T16:50:30.268Z,58.90
2019-04-11T16:53:12.769Z,59.40
2019-04-11T16:55:57.390Z,61.30
2019-04-11T16:58:39.054Z,62.10
2019-04-11T17:01:23.810Z,62.10
2019-04-11T17:04:05.195Z,62.30
2019-04-11T17:06:48.775Z,60.80
2019-04-11T17:09:31.252Z,59.90
2019-04-11T17:12:14.560Z,60.00
2019-04-11T17:15:01.136Z,60.70
2019-04-11T17:17:44.603Z,61.20
2019-04-11T17:20:26.474Z,62.80
2019-04-11T17:22:58.142Z,64.20
2019-04-11T17:25:28.254Z,65.10
2019-04-11T17:27:57.573Z,66.10
2019-04-11T17:30:26.930Z,68.00
2019-04-11T17:32:56.346Z,70.40
2019-04-11T17:35:26.804Z,70.90
2019-04-11T17:37:56.154Z,71.30
2019-04-11T17:40:25.472Z,73.20
2019-04-11T17:42:54.808Z,74.80
2019-04-11T17:45:24.158Z,75.80
2019-04-11T17:47:54.805Z,75.90
2019-04-11T17:50:24.584Z,76.10
2019-04-11T17:52:54.758Z,76.30
2019-04-11T17:55:24.764Z,76.40
2019-04-11T17:57:54.911Z,76.60
2019-04-11T18:00:29.688Z,76.80
2019-04-11T18:02:57.815Z,77.20
2019-04-11T18:05:27.135Z,77.30
2019-04-11T18:07:59.637Z,77.40
2019-04-11T18:10:28.956Z,77.60
2019-04-11T18:13:00.493Z,77.90
2019-04-11T18:15:32.780Z,78.00
2019-04-11T18:18:03.144Z,78.40
2019-04-11T18:20:36.840Z,78.50
2019-04-11T18:23:04.269Z,78.60
2019-04-11T18:25:35.203Z,78.20
2019-04-11T18:28:04.605Z,78.00
2019-04-11T18:30:33.939Z,77.90
2019-04-11T18:33:03.413Z,77.80
2019-04-11T18:35:32.932Z,77.90
2019-04-11T18:38:02.703Z,78.00
2019-04-11T18:40:32.088Z,78.00
2019-04-11T18:43:01.431Z,77.80
2019-04-11T18:45:30.896Z,77.60
2019-04-11T18:48:00.278Z,77.60
2019-04-11T18:50:29.680Z,77.50
2019-04-11T18:53:00.377Z,77.10
2019-04-11T18:55:29.739Z,77.10
2019-04-11T18:58:01.679Z,78.00
2019-04-11T19:00:31.201Z,77.00
2019-04-11T19:03:00.566Z,77.10
2019-04-11T19:05:30.231Z,77.00
2019-04-11T19:08:00.783Z,77.30
2019-04-11T19:10:30.226Z,77.30
2019-04-11T19:12:59.747Z,77.50
2019-04-11T19:15:29.204Z,77.60
2019-04-11T19:18:06.124Z,77.40
2019-04-11T19:20:29.718Z,77.20
2019-04-11T19:22:59.623Z,77.40
2019-04-11T19:25:32.157Z,77.60
2019-04-11T19:28:01.578Z,77.60
2019-04-11T19:30:31.042Z,77.60
2019-04-11T19:33:00.497Z,77.80
2019-04-11T19:35:30.046Z,78.10
2019-04-11T19:37:59.932Z,77.90
2019-04-11T19:40:30.574Z,78.00
2019-04-11T19:43:00.518Z,78.10
2019-04-11T19:45:29.943Z,78.20
2019-04-11T19:47:59.350Z,78.40
2019-04-11T19:50:29.175Z,78.40
2019-04-11T19:53:02.624Z,78.70
2019-04-11T19:55:37.766Z,78.70
2019-04-11T19:58:07.117Z,78.70
2019-04-11T20:00:37.027Z,78.80
2019-04-11T20:03:08.389Z,79.00
2019-04-11T20:05:37.493Z,79.10
2019-04-11T20:08:08.007Z,78.90
2019-04-11T20:10:37.454Z,79.00
2019-04-11T20:13:06.783Z,79.00
2019-04-11T20:15:37.171Z,79.20
2019-04-11T20:18:07.382Z,79.30
2019-04-11T20:20:37.591Z,79.20
2019-04-11T20:23:10.543Z,79.10
2019-04-11T20:25:38.314Z,78.90
2019-04-11T20:28:07.631Z,78.90
2019-04-11T20:30:36.996Z,79.00
2019-04-11T20:33:06.334Z,79.10
2019-04-11T20:35:39.838Z,79.00
2019-04-11T20:38:06.813Z,79.00
2019-04-11T20:40:36.151Z,79.00
2019-04-11T20:43:05.525Z,78.80
2019-04-11T20:45:36.505Z,78.90
2019-04-11T20:48:05.824Z,79.20
2019-04-11T20:50:36.267Z,79.00
2019-04-11T20:53:12.537Z,78.90
2019-04-11T20:55:39.260Z,78.80
2019-04-11T20:58:10.427Z,78.70
2019-04-11T21:00:49.556Z,78.90
2019-04-11T21:03:10.417Z,78.20
2019-04-11T21:05:39.750Z,78.30
2019-04-11T21:08:09.111Z,78.10
2019-04-11T21:10:38.453Z,77.80
2019-04-11T21:13:08.180Z,78.00
2019-04-11T21:15:39.523Z,78.20
2019-04-11T21:18:08.575Z,77.60
2019-04-11T21:20:39.499Z,77.80
2019-04-11T21:23:09.044Z,77.60
2019-04-11T21:25:38.374Z,77.50
2019-04-11T21:28:07.804Z,77.90
2019-04-11T21:30:37.247Z,77.60
2019-04-11T21:33:06.602Z,77.60
2019-04-11T21:35:36.034Z,77.60
2019-04-11T21:38:05.420Z,77.90
2019-04-11T21:40:35.937Z,77.60
2019-04-11T21:43:06.688Z,77.60
2019-04-11T21:45:36.556Z,77.60
2019-04-11T21:48:06.958Z,77.60
2019-04-11T21:50:40.406Z,77.60
2019-04-11T21:53:13.829Z,77.90
2019-04-11T21:55:40.800Z,77.60
2019-04-11T21:58:10.158Z,77.60
2019-04-11T22:00:43.052Z,77.80
2019-04-11T22:03:14.459Z,78.00
2019-04-11T22:05:43.915Z,78.10
2019-04-11T22:08:13.375Z,78.40
2019-04-11T22:10:42.722Z,78.30
2019-04-11T22:13:12.039Z,78.50
2019-04-11T22:15:42.521Z,78.60
2019-04-11T22:18:16.741Z,78.90
2019-04-11T22:20:46.379Z,79.00
2019-04-11T22:23:15.890Z,79.10
2019-04-11T22:25:48.492Z,79.30
2019-04-11T22:28:17.808Z,79.30
2019-04-11T22:30:47.811Z,79.50
2019-04-11T22:33:19.839Z,79.70
2019-04-11T22:35:49.186Z,79.90
2019-04-11T22:38:19.580Z,80.20
2019-04-11T22:40:48.980Z,80.50
2019-04-11T22:43:24.370Z,80.80
2019-04-11T22:45:49.315Z,81.00
2019-04-11T22:48:21.324Z,81.10
2019-04-11T22:50:50.659Z,81.30
2019-04-11T22:53:20.007Z,81.40
2019-04-11T22:55:49.319Z,81.50
2019-04-11T22:58:18.628Z,81.80
2019-04-11T23:00:47.988Z,82.00
2019-04-11T23:03:21.964Z,82.10
2019-04-11T23:05:51.295Z,82.50
2019-04-11T23:08:20.623Z,82.80
2019-04-11T23:10:50.020Z,82.90
2019-04-11T23:13:19.354Z,82.70
2019-04-11T23:15:48.687Z,83.50
2019-04-11T23:18:18.027Z,83.70
2019-04-11T23:20:47.432Z,83.90
2019-04-11T23:23:16.772Z,84.00
2019-04-11T23:25:46.223Z,84.20
2019-04-11T23:28:16.505Z,84.30
2019-04-11T23:30:50.368Z,84.50
2019-04-11T23:33:18.975Z,84.50
2019-04-11T23:35:51.190Z,84.60
2019-04-11T23:38:23.943Z,84.70
2019-04-11T23:40:53.898Z,84.90
2019-04-11T23:43:23.320Z,85.00
2019-04-11T23:45:53.366Z,85.10
2019-04-11T23:48:24.033Z,85.30
2019-04-11T23:50:56.554Z,85.60
2019-04-11T23:53:29.121Z,85.90
2019-04-11T23:56:00.295Z,86.00
2019-04-11T23:58:31.770Z,86.30
